Impacts METAR Board INFO
IDs:

KDCA - Washington/National, VA, US

Updated at: 1322 UTC 19 Jan 2018
Potential Impact None Slight Moderate High
Time19/01Z 19/02Z 19/03Z 19/04Z 19/05Z 19/06Z 19/07Z 19/08Z 19/09Z 19/10Z 19/11Z 19/12Z 19/13Z
VIS10 10 10 10 10 10 10 10 10 10 10 10 10
CIG-- -- -- -- -- -- -- -- -- -- -- -- --
CoverCLRCLRCLRCLRCLRCLRFEWSCTSCTCLRCLRFEWFEW
FltCatVFRVFRVFRVFRVFRVFRVFRVFRVFRVFRVFRVFRVFR
WX--------------------------
WDir02203300190200180180190190000
WSpd0 3 5 0 8 5 7 5 3 5 0 0 0
WGst-- -- -- -- -- -- -- -- -- -- -- -- --
Raw hourly METARs
KDCA 190052Z 00000KT 10SM CLR 02/M09 A3011 RMK AO2 SLP193 T00171094
KDCA 190152Z 22003KT 10SM CLR 05/M16 A3011 RMK AO2 SLP197 T00501156
KDCA 190252Z 33005KT 10SM CLR 04/M16 A3013 RMK AO2 SLP203 T00441161 53014
KDCA 190352Z 00000KT 10SM CLR 03/M14 A3014 RMK AO2 SLP205 T00331144
KDCA 190452Z 19008KT 10SM CLR M01/M05 A3014 RMK AO2 SLP204 T10111050 400831072
KDCA 190552Z 20005KT 10SM CLR M01/M07 A3013 RMK AO2 SLP200 T10111072 10067 21011 58003
KDCA 190652Z 18007KT 10SM FEW250 M02/M06 A3012 RMK AO2 SLP199 T10171056
KDCA 190752Z 18005KT 10SM SCT250 M02/M07 A3011 RMK AO2 SLP196 T10171067
KDCA 190852Z 19003KT 10SM SCT250 M02/M07 A3010 RMK AO2 SLP192 T10171067 58008
KDCA 190952Z 19005KT 10SM CLR M03/M07 A3011 RMK AO2 SLP194 T10331067
KDCA 191052Z 00000KT 10SM CLR M03/M06 A3012 RMK AO2 SLP197 T10281061
KDCA 191152Z 00000KT 10SM FEW250 M02/M07 A3014 RMK AO2 SLP204 T10221072 11011 21039 53012
KDCA 191252Z 00000KT 10SM FEW120 FEW250 M02/M07 A3015 RMK AO2 SLP208 T10171072